Time;durP1;ratioP1;P1;durP2;ratioP2;P2;SDS_P1;SDS_P2;PMS_P1;PMS_P2;Temp;Humidity;BMP_temperature;BMP_pressure;BME280_temperature;BME280_humidity;BME280_pressure;Samples;Min_cycle;Max_cycle;Signal;HPM_P1;HPM_P2
2023/05/22 00:01:06;;;;;;;;;7.50;7.00;;;;;21.08;44.22;101137.47;5018625;28;45383;-52
2023/05/22 00:03:32;;;;;;;;;7.75;7.75;;;;;21.10;44.31;101137.41;5018291;28;45343;-49
2023/05/22 00:05:57;;;;;;;;;10.25;8.00;;;;;21.07;44.23;101129.66;5018208;28;45341;-46
2023/05/22 00:08:27;;;;;;;;;11.50;9.00;;;;;21.08;44.08;101128.72;5018505;28;45278;-52
2023/05/22 00:10:53;;;;;;;;;8.00;8.00;;;;;21.07;44.12;101127.84;5018528;28;45434;-48
2023/05/22 00:13:19;;;;;;;;;8.00;8.00;;;;;21.08;44.08;101128.72;5016893;28;46080;-52
2023/05/22 00:15:44;;;;;;;;;10.25;8.00;;;;;21.07;44.02;101124.38;5018523;28;45933;-52
2023/05/22 00:18:12;;;;;;;;;8.50;8.50;;;;;21.07;44.15;101124.38;5016654;28;46292;-54
2023/05/22 00:20:37;;;;;;;;;10.00;7.50;;;;;21.08;44.25;101126.09;5018274;28;45387;-45
2023/05/22 00:23:04;;;;;;;;;8.75;7.25;;;;;21.08;43.86;101123.47;5017669;28;52845;-51
2023/05/22 00:25:29;;;;;;;;;9.25;8.00;;;;;21.08;44.21;101126.09;5018038;28;45823;-52
2023/05/22 00:27:54;;;;;;;;;7.25;6.75;;;;;21.08;44.25;101126.94;5018137;28;45255;-48
2023/05/22 00:30:20;;;;;;;;;6.00;6.00;;;;;21.06;43.88;101120.88;5018228;28;45624;-54
2023/05/22 00:32:45;;;;;;;;;6.75;6.75;;;;;21.08;44.03;101124.28;5017427;28;67869;-52
2023/05/22 00:35:10;;;;;;;;;8.25;8.25;;;;;21.07;43.92;101125.22;5017942;28;45359;-51
2023/05/22 00:37:35;;;;;;;;;10.00;7.00;;;;;21.07;44.03;101133.13;5017996;28;45172;-52
2023/05/22 00:40:01;;;;;;;;;9.25;8.25;;;;;21.08;44.08;101128.72;5016768;28;45383;-51
2023/05/22 00:42:27;;;;;;;;;10.75;7.00;;;;;21.06;44.14;101123.50;5017996;28;45431;-49
2023/05/22 00:44:52;;;;;;;;;9.00;8.00;;;;;21.08;43.99;101136.63;5017494;28;45426;-49
2023/05/22 00:47:17;;;;;;;;;8.00;7.00;;;;;21.07;44.04;101125.22;5018077;28;45312;-50
2023/05/22 00:49:43;;;;;;;;;9.75;8.00;;;;;21.07;43.87;101127.84;5017544;28;45645;-53
2023/05/22 00:52:09;;;;;;;;;9.00;7.00;;;;;21.07;43.74;101124.38;5017528;28;45398;-44
2023/05/22 00:54:35;;;;;;;;;8.75;8.00;;;;;21.06;43.79;101123.50;5017621;28;45505;-50
2023/05/22 00:57:01;;;;;;;;;8.75;7.75;;;;;21.08;44.08;101118.19;5017771;28;45260;-45
2023/05/22 00:59:28;;;;;;;;;9.00;7.75;;;;;21.08;43.71;101119.03;5017716;28;45363;-48
2023/05/22 01:01:54;;;;;;;;;7.50;6.50;;;;;21.07;44.09;101119.13;5017521;28;45401;-52
2023/05/22 01:04:19;;;;;;;;;7.00;7.00;;;;;21.07;43.89;101116.47;5017223;28;45418;-47
2023/05/22 01:06:46;;;;;;;;;10.25;8.00;;;;;21.07;43.75;101113.84;5017823;28;45273;-46
2023/05/22 01:09:12;;;;;;;;;7.50;6.25;;;;;21.06;43.95;101098.97;5017526;28;45565;-40
2023/05/22 01:11:55;;;;;;;;;7.75;7.00;;;;;21.06;44.27;101106.88;5017130;28;46148;-42
2023/05/22 01:14:21;;;;;;;;;7.75;6.75;;;;;21.07;44.04;101105.94;5017417;28;46143;-39
2023/05/22 01:16:58;;;;;;;;;8.33;7.33;;;;;21.07;43.79;101109.41;5017684;28;45479;-52
2023/05/22 01:20:00;;;;;;;;;9.75;7.25;;;;;21.08;43.74;101112.91;5017394;28;45348;-53
2023/05/22 01:23:08;;;;;;;;;5.75;5.75;;;;;21.08;44.01;101112.91;5017090;28;46266;-51
2023/05/22 01:25:33;;;;;;;;;7.75;6.75;;;;;21.07;43.64;101108.56;5016979;28;45276;-51
2023/05/22 01:28:40;;;;;;;;;8.33;7.00;;;;;21.07;43.99;101113.84;5016918;28;45598;-54
2023/05/22 01:31:16;;;;;;;;;6.00;5.25;;;;;21.07;43.70;101108.56;5017239;28;45323;-50
2023/05/22 01:33:46;;;;;;;;;9.25;7.25;;;;;21.06;43.89;101107.69;5015460;28;46095;-48
2023/05/22 01:36:14;;;;;;;;;8.50;7.00;;;;;21.06;44.21;101101.59;5016945;28;45833;-48
2023/05/22 01:38:41;;;;;;;;;7.50;7.50;;;;;21.08;43.90;101118.19;5016984;28;45324;-44
2023/05/22 01:41:08;;;;;;;;;7.25;7.00;;;;;21.06;43.88;101107.69;5017031;28;45153;-46
2023/05/22 01:43:34;;;;;;;;;7.50;6.75;;;;;21.06;43.97;101104.22;5016575;28;45276;-50
2023/05/22 01:46:00;;;;;;;;;7.00;6.00;;;;;21.07;43.86;101108.56;5016658;28;45297;-48
2023/05/22 01:48:25;;;;;;;;;8.25;7.25;;;;;21.07;43.89;101108.56;5016682;28;45172;-49
2023/05/22 01:50:52;;;;;;;;;8.00;8.00;;;;;21.06;43.75;101102.44;5016655;28;51758;-48
2023/05/22 01:53:37;;;;;;;;;6.50;6.50;;;;;21.05;43.88;101108.66;5016812;28;45292;-51
2023/05/22 01:56:08;;;;;;;;;7.75;6.25;;;;;21.06;43.73;101104.22;5016574;28;45347;-52
2023/05/22 01:58:51;;;;;;;;;6.25;6.25;;;;;21.06;43.87;101109.50;5015938;28;45306;-50
2023/05/22 02:01:18;;;;;;;;;8.25;7.00;;;;;21.05;43.94;101100.75;5016615;28;45248;-53
2023/05/22 02:03:47;;;;;;;;;8.50;8.00;;;;;21.05;44.09;101105.16;5016429;28;45220;-52
2023/05/22 02:06:14;;;;;;;;;6.50;6.00;;;;;21.06;43.96;101112.13;5016529;28;45928;-45
2023/05/22 02:08:41;;;;;;;;;6.25;6.25;;;;;21.06;43.81;101105.06;5016353;28;45351;-56
2023/05/22 02:11:08;;;;;;;;;7.50;6.25;;;;;21.06;43.60;101112.13;5016658;28;45468;-50
2023/05/22 02:13:34;;;;;;;;;6.00;6.00;;;;;21.06;43.86;101106.88;5016152;28;46466;-49
2023/05/22 02:16:02;;;;;;;;;7.25;6.00;;;;;21.06;43.49;101120.88;5016127;28;45245;-55
2023/05/22 02:18:28;;;;;;;;;6.25;4.50;;;;;21.07;44.01;101111.22;5016228;28;45281;-54
2023/05/22 02:20:58;;;;;;;;;7.00;6.00;;;;;21.06;43.56;101110.34;5016647;28;45429;-40
2023/05/22 02:23:23;;;;;;;;;5.50;5.00;;;;;21.07;43.77;101119.13;5016243;28;46219;-52
2023/05/22 02:25:49;;;;;;;;;7.25;7.25;;;;;21.06;43.70;101109.50;5016422;28;45316;-49
2023/05/22 02:28:14;;;;;;;;;6.00;6.00;;;;;21.06;43.92;101107.69;5016193;28;45255;-50
2023/05/22 02:30:40;;;;;;;;;6.00;5.25;;;;;21.06;44.01;101106.88;5016160;28;45519;-53
2023/05/22 02:33:05;;;;;;;;;6.00;5.00;;;;;21.06;44.04;101104.22;5014664;28;45310;-48
2023/05/22 02:35:31;;;;;;;;;7.00;6.25;;;;;21.06;44.04;101112.13;5015892;28;45246;-46
2023/05/22 02:37:56;;;;;;;;;5.75;5.75;;;;;21.06;43.75;101102.44;5015883;28;45289;-52
2023/05/22 02:40:22;;;;;;;;;5.50;5.50;;;;;21.06;43.86;101102.44;5016553;28;45373;-44
2023/05/22 02:42:47;;;;;;;;;5.75;5.00;;;;;21.07;43.57;101103.31;5015718;28;45454;-49
2023/05/22 02:45:12;;;;;;;;;6.00;6.00;;;;;21.06;43.81;101106.88;5015511;28;52826;-48
2023/05/22 02:47:38;;;;;;;;;6.00;6.00;;;;;21.06;43.59;101105.06;5015910;28;45315;-43
2023/05/22 02:50:03;;;;;;;;;6.75;5.00;;;;;21.06;43.76;101101.59;5015937;28;45525;-54
2023/05/22 02:52:29;;;;;;;;;8.25;6.00;;;;;21.05;44.00;101097.25;5015520;28;46186;-48
2023/05/22 02:54:55;;;;;;;;;6.25;6.25;;;;;21.07;43.80;101098.03;5016170;28;45750;-45
2023/05/22 02:57:20;;;;;;;;;6.50;5.50;;;;;21.06;43.66;101096.31;5015939;28;45280;-51
2023/05/22 02:59:45;;;;;;;;;6.50;4.25;;;;;21.07;43.62;101100.66;5016260;28;45680;-47
2023/05/22 03:02:11;;;;;;;;;5.25;4.00;;;;;21.05;43.82;101102.53;5015777;28;46611;-49
2023/05/22 03:04:37;;;;;;;;;8.25;7.25;;;;;21.04;43.55;101106.97;5014443;28;45432;-48
2023/05/22 03:07:02;;;;;;;;;5.25;5.25;;;;;21.06;43.48;101101.59;5015809;28;45392;-45
2023/05/22 03:09:28;;;;;;;;;5.00;5.00;;;;;21.05;43.68;101100.75;5015850;28;45181;-50
2023/05/22 03:11:53;;;;;;;;;7.00;6.25;;;;;21.05;43.76;101107.78;5018819;28;45376;-54
2023/05/22 03:14:18;;;;;;;;;7.25;6.00;;;;;21.06;43.73;101101.59;5019319;28;45426;-48
2023/05/22 03:16:44;;;;;;;;;5.50;5.00;;;;;21.05;43.67;101106.03;5019196;28;45335;-50
2023/05/22 03:19:13;;;;;;;;;3.75;3.75;;;;;21.04;43.62;101109.59;5019312;28;45270;-47
2023/05/22 03:21:40;;;;;;;;;8.00;5.25;;;;;21.04;43.70;101108.72;5018947;28;45453;-42
2023/05/22 03:24:06;;;;;;;;;6.00;6.00;;;;;21.04;43.77;101106.09;5034246;28;45380;-38
2023/05/22 03:26:31;;;;;;;;;6.00;6.00;;;;;21.04;43.70;101099.06;5019183;28;45487;-38
2023/05/22 03:28:57;;;;;;;;;7.25;5.75;;;;;21.05;43.55;101105.16;5019492;28;45347;-42
2023/05/22 03:31:27;;;;;;;;;6.25;6.25;;;;;21.06;43.51;101106.88;5018946;28;45354;-48
2023/05/22 03:33:53;;;;;;;;;7.00;6.00;;;;;21.05;43.75;101103.41;5019227;28;45481;-53
2023/05/22 03:36:20;;;;;;;;;7.00;5.50;;;;;21.05;43.68;101099.88;5018760;28;45418;-51
2023/05/22 03:38:45;;;;;;;;;8.00;6.00;;;;;21.05;43.49;101099.88;5019084;28;45339;-50
2023/05/22 03:41:11;;;;;;;;;5.00;5.00;;;;;21.05;43.65;101091.97;5018658;28;46324;-53
2023/05/22 03:43:36;;;;;;;;;5.50;5.25;;;;;21.06;43.76;101096.31;5018558;28;45398;-51
2023/05/22 03:46:01;;;;;;;;;5.00;5.00;;;;;21.05;43.65;101091.97;5018870;28;45643;-46
2023/05/22 03:48:27;;;;;;;;;7.25;6.00;;;;;21.04;43.45;101088.50;5019346;28;45253;-45
2023/05/22 03:50:52;;;;;;;;;6.00;6.00;;;;;21.03;43.33;101089.44;5018394;28;45489;-56
2023/05/22 03:53:17;;;;;;;;;6.25;6.25;;;;;21.04;43.47;101091.16;5017292;28;45354;-52
2023/05/22 03:55:43;;;;;;;;;4.25;4.25;;;;;21.04;43.32;101098.19;5018637;28;45352;-50
2023/05/22 03:58:08;;;;;;;;;7.67;6.00;;;;;21.04;43.75;101096.41;5017966;28;56974;-55
2023/05/22 04:00:33;;;;;;;;;8.00;5.00;;;;;21.06;43.49;101109.50;5017703;28;64409;-49
2023/05/22 04:02:59;;;;;;;;;4.75;4.75;;;;;21.04;43.62;101111.34;5018546;28;45433;-55
2023/05/22 04:05:24;;;;;;;;;6.00;6.00;;;;;21.06;43.70;101122.69;5018445;28;45316;-52
2023/05/22 04:07:50;;;;;;;;;6.00;6.00;;;;;21.05;43.63;101120.97;5018535;28;45245;-48
2023/05/22 04:10:15;;;;;;;;;6.00;5.75;;;;;21.05;43.32;101123.59;5017553;28;58438;-50
2023/05/22 04:12:40;;;;;;;;;4.00;4.00;;;;;21.04;43.54;101129.81;5016828;28;46257;-51
2023/05/22 04:15:06;;;;;;;;;6.25;4.50;;;;;21.03;43.15;101125.47;5017501;28;63061;-48
2023/05/22 04:17:33;;;;;;;;;6.00;6.00;;;;;21.05;43.24;101127.13;5018351;28;45655;-52
2023/05/22 04:19:59;;;;;;;;;7.00;6.00;;;;;21.04;43.71;101125.41;5018297;28;45983;-40
2023/05/22 04:22:26;;;;;;;;;7.00;5.75;;;;;21.04;43.30;101121.91;5017391;28;45781;-40
2023/05/22 04:24:51;;;;;;;;;9.00;6.00;;;;;21.04;43.41;101124.53;5016721;28;45422;-41
2023/05/22 04:27:17;;;;;;;;;4.75;4.75;;;;;21.04;43.31;101117.50;5018292;28;45612;-43
2023/05/22 04:29:43;;;;;;;;;5.75;5.75;;;;;21.05;43.42;101110.44;5017904;28;46116;-45
2023/05/22 04:32:09;;;;;;;;;5.50;4.75;;;;;21.05;43.37;101115.69;5017870;28;45804;-45
2023/05/22 04:34:38;;;;;;;;;3.50;3.50;;;;;21.04;43.50;101120.13;5017950;28;45268;-43
2023/05/22 04:37:05;;;;;;;;;4.00;4.00;;;;;21.05;43.41;101128.88;5018195;28;45499;-42
2023/05/22 04:39:30;;;;;;;;;6.50;5.25;;;;;21.04;43.30;101135.06;5018031;28;46176;-40
2023/05/22 04:41:57;;;;;;;;;7.00;5.50;;;;;21.05;43.16;101134.16;5016496;28;45320;-41
2023/05/22 04:44:22;;;;;;;;;8.75;7.75;;;;;21.06;43.74;101135.84;5017611;28;45442;-42
2023/05/22 04:46:48;;;;;;;;;4.00;4.00;;;;;21.06;43.33;101135.84;5017975;28;45193;-43
2023/05/22 04:49:13;;;;;;;;;5.00;5.00;;;;;21.06;43.41;101143.75;5016075;28;47089;-42
2023/05/22 04:51:38;;;;;;;;;4.00;4.00;;;;;21.06;43.78;101146.41;5017594;28;45182;-42
2023/05/22 04:54:04;;;;;;;;;6.75;5.25;;;;;21.05;43.84;101147.31;5017803;28;45485;-43
2023/05/22 04:56:30;;;;;;;;;6.25;6.00;;;;;21.05;44.04;101142.91;5018279;28;45519;-44
2023/05/22 04:58:56;;;;;;;;;7.25;6.75;;;;;21.07;44.03;101142.84;5017650;28;47106;-43
2023/05/22 05:01:21;;;;;;;;;7.00;7.00;;;;;21.08;44.21;101144.53;5017570;28;45226;-44
2023/05/22 05:03:47;;;;;;;;;7.25;7.25;;;;;21.09;44.48;101146.25;5017657;28;45288;-46
2023/05/22 05:06:12;;;;;;;;;5.00;5.00;;;;;21.09;44.52;101148.88;5017740;28;45351;-40
2023/05/22 05:08:38;;;;;;;;;5.00;5.00;;;;;21.09;44.80;101143.59;5017267;28;46494;-47
2023/05/22 05:11:03;;;;;;;;;9.00;6.00;;;;;21.10;45.12;101156.69;5017506;28;45961;-41
2023/05/22 05:13:29;;;;;;;;;6.50;6.50;;;;;21.08;45.16;101150.66;5017868;28;45343;-43
2023/05/22 05:15:58;;;;;;;;;5.75;4.00;;;;;21.11;45.15;101147.03;5017634;28;45276;-43
2023/05/22 05:18:23;;;;;;;;;5.50;5.50;;;;;21.11;45.07;101147.84;5017209;28;46609;-39
2023/05/22 05:20:48;;;;;;;;;5.75;5.00;;;;;21.10;45.04;101140.88;5032354;28;49593;-41
2023/05/22 05:23:14;;;;;;;;;6.50;6.00;;;;;21.11;45.18;101142.59;5017281;28;45339;-40
2023/05/22 05:25:39;;;;;;;;;6.50;6.50;;;;;21.12;45.58;101139.03;5017486;28;45306;-38
2023/05/22 05:28:09;;;;;;;;;9.25;6.00;;;;;21.12;45.71;101133.75;5016956;28;46149;-38
2023/05/22 05:30:39;;;;;;;;;4.75;3.50;;;;;21.13;45.52;101126.69;5017037;28;45836;-38
2023/05/22 05:33:04;;;;;;;;;3.50;3.00;;;;;21.13;45.45;101127.53;5016674;28;45353;-44
2023/05/22 05:35:30;;;;;;;;;5.75;5.50;;;;;21.14;45.71;101133.66;5016277;28;45360;-38
2023/05/22 05:37:55;;;;;;;;;7.75;6.75;;;;;21.14;45.48;101134.53;5017030;28;46432;-38
2023/05/22 05:40:21;;;;;;;;;4.25;4.25;;;;;21.15;45.39;101138.00;5016640;28;50104;-38
2023/05/22 05:42:46;;;;;;;;;7.50;5.50;;;;;21.13;45.59;101135.47;5015598;28;45403;-38
2023/05/22 05:45:12;;;;;;;;;6.50;6.25;;;;;21.15;45.86;101140.63;5017086;28;45561;-42
2023/05/22 05:47:37;;;;;;;;;10.00;7.00;;;;;21.15;45.53;101138.00;5016660;28;45517;-45
2023/05/22 05:50:03;;;;;;;;;4.75;4.00;;;;;21.15;45.24;101138.00;5016769;28;51179;-46
2023/05/22 05:52:31;;;;;;;;;5.25;5.00;;;;;21.17;45.53;101136.13;5016934;28;45400;-47
2023/05/22 05:54:57;;;;;;;;;6.00;4.75;;;;;21.17;45.35;101136.13;5016874;28;45554;-43
2023/05/22 05:57:22;;;;;;;;;6.00;6.00;;;;;21.17;45.44;101136.13;5016564;28;45644;-44
2023/05/22 05:59:47;;;;;;;;;5.33;5.00;;;;;21.18;45.13;101129.94;5015972;28;62060;-43
2023/05/22 06:02:13;;;;;;;;;6.00;6.00;;;;;21.18;45.37;101132.56;5015976;28;55919;-50
2023/05/22 06:04:38;;;;;;;;;8.00;6.00;;;;;21.18;45.46;101137.84;5016791;28;45592;-40
2023/05/22 06:07:04;;;;;;;;;5.25;5.25;;;;;21.20;45.32;101135.13;5015962;28;50549;-43
2023/05/22 06:09:29;;;;;;;;;9.75;7.25;;;;;21.19;45.01;101129.00;5016321;28;45323;-48
2023/05/22 06:11:54;;;;;;;;;6.75;4.75;;;;;21.19;45.16;101126.38;5016601;28;45343;-41
2023/05/22 06:14:20;;;;;;;;;6.75;6.00;;;;;21.21;45.45;101136.81;5016658;28;45268;-39
2023/05/22 06:16:45;;;;;;;;;5.75;5.50;;;;;21.23;45.28;101137.59;5016198;28;46131;-40
2023/05/22 06:19:11;;;;;;;;;7.00;7.00;;;;;21.22;45.35;101133.25;5016250;28;45288;-47
2023/05/22 06:21:36;;;;;;;;;6.00;6.00;;;;;21.22;45.05;101133.25;5016743;28;45473;-41
2023/05/22 06:24:02;;;;;;;;;5.00;5.00;;;;;21.24;45.12;101141.94;5016331;28;45609;-47
2023/05/22 06:26:27;;;;;;;;;7.75;5.75;;;;;21.24;45.29;101145.41;5016066;28;46025;-46
2023/05/22 06:28:53;;;;;;;;;6.25;6.25;;;;;21.26;45.06;101140.91;5016219;28;48854;-42
2023/05/22 06:31:18;;;;;;;;;6.50;6.50;;;;;21.26;45.23;101140.91;5016179;28;45249;-38
2023/05/22 06:33:43;;;;;;;;;8.50;7.00;;;;;21.27;45.36;101141.78;5016455;28;45483;-45
2023/05/22 06:36:10;;;;;;;;;9.75;5.25;;;;;21.26;45.23;101138.28;5015971;28;46190;-47
2023/05/22 06:38:36;;;;;;;;;7.00;7.00;;;;;21.29;44.98;101150.44;5016439;28;45346;-48
2023/05/22 06:41:02;;;;;;;;;5.00;5.00;;;;;21.31;44.86;101152.06;5014876;28;45269;-39
2023/05/22 06:43:28;;;;;;;;;6.00;5.25;;;;;21.31;44.72;101152.06;5016253;28;45171;-46
2023/05/22 06:45:53;;;;;;;;;6.67;5.67;;;;;21.31;44.62;101149.44;5015107;28;62877;-48
2023/05/22 06:48:19;;;;;;;;;5.00;5.00;;;;;21.35;44.73;101165.06;5016028;28;45686;-41
2023/05/22 06:50:44;;;;;;;;;6.50;6.00;;;;;21.35;44.58;101165.06;5015798;28;45329;-40
2023/05/22 06:53:10;;;;;;;;;5.00;5.00;;;;;21.35;44.73;101158.03;5015640;28;48180;-39
2023/05/22 06:55:35;;;;;;;;;5.75;5.75;;;;;21.35;44.32;101159.81;5015880;28;46954;-40
2023/05/22 06:58:01;;;;;;;;;5.25;4.75;;;;;21.36;44.36;101161.50;5015786;28;45233;-42
2023/05/22 07:00:26;;;;;;;;;6.00;6.00;;;;;21.38;44.85;101164.91;5015999;28;45298;-41
2023/05/22 07:02:52;;;;;;;;;6.25;5.25;;;;;21.38;44.50;101171.06;5015866;28;45371;-38
2023/05/22 07:05:17;;;;;;;;;7.00;7.00;;;;;21.38;44.79;101171.06;5015314;28;50447;-38
2023/05/22 07:07:43;;;;;;;;;6.50;5.00;;;;;21.38;44.41;101168.41;5015591;28;45296;-42
2023/05/22 07:10:09;;;;;;;;;5.75;5.75;;;;;21.39;44.37;101167.47;5015928;28;45277;-43
2023/05/22 07:12:35;;;;;;;;;6.50;5.00;;;;;21.41;44.47;101165.59;5015893;28;45366;-42
2023/05/22 07:15:00;;;;;;;;;6.00;4.00;;;;;21.40;44.55;101169.16;5015705;28;45668;-42
2023/05/22 07:17:26;;;;;;;;;6.00;5.50;;;;;21.41;44.44;101162.13;5015472;28;45321;-40
2023/05/22 07:19:51;;;;;;;;;2.25;2.25;;;;;21.41;44.87;101168.22;5015651;28;45412;-46
2023/05/22 07:22:16;;;;;;;;;5.75;5.00;;;;;21.42;44.55;101164.66;5015803;28;45224;-44
2023/05/22 07:24:42;;;;;;;;;5.00;5.00;;;;;21.43;44.47;101166.38;5015308;28;49884;-41
2023/05/22 07:27:08;;;;;;;;;8.75;6.50;;;;;21.45;44.35;101174.19;5030997;28;45691;-42
2023/05/22 07:29:34;;;;;;;;;6.50;5.00;;;;;21.44;44.34;101176.00;5015303;28;45239;-40
2023/05/22 07:31:59;;;;;;;;;7.00;5.75;;;;;21.45;44.08;101182.09;5015543;28;45620;-43
2023/05/22 07:34:30;;;;;;;;;7.25;6.00;;;;;21.46;44.25;101183.81;5013884;28;48691;-41
2023/05/22 07:36:56;;;;;;;;;6.00;6.00;;;;;21.47;44.50;101190.78;5015172;28;45265;-40
2023/05/22 07:39:21;;;;;;;;;5.00;5.00;;;;;21.46;44.18;101183.81;5015480;28;45288;-40
2023/05/22 07:41:50;;;;;;;;;5.00;5.00;;;;;21.49;44.25;101188.09;5015579;28;45512;-38
2023/05/22 07:44:16;;;;;;;;;7.25;5.75;;;;;21.49;44.42;101182.81;5014880;28;46189;-45
2023/05/22 07:46:42;;;;;;;;;5.00;5.00;;;;;21.49;44.24;101188.91;5015462;28;45227;-38
2023/05/22 07:49:09;;;;;;;;;5.25;5.25;;;;;21.50;44.33;101188.00;5015384;28;45352;-38
2023/05/22 07:51:34;;;;;;;;;6.50;5.00;;;;;21.51;44.31;101196.75;5015373;28;45466;-36
2023/05/22 07:53:59;;;;;;;;;5.50;5.50;;;;;21.50;44.15;101195.91;5014909;28;45375;-41
2023/05/22 07:56:26;;;;;;;;;6.00;5.00;;;;;21.51;44.30;101191.47;5015811;28;45386;-38
2023/05/22 07:58:51;;;;;;;;;6.75;5.00;;;;;21.51;43.98;101189.69;5018692;28;45288;-41
2023/05/22 08:01:17;;;;;;;;;6.00;5.00;;;;;21.51;44.33;101191.47;5018975;28;45277;-43
2023/05/22 08:03:42;;;;;;;;;6.50;6.50;;;;;21.51;44.36;101192.34;5018599;28;46390;-38
2023/05/22 08:06:07;;;;;;;;;6.00;6.00;;;;;21.52;44.32;101193.16;5018381;28;45390;-39
2023/05/22 08:08:33;;;;;;;;;5.00;5.00;;;;;21.52;44.47;101196.69;5018641;28;45254;-49
2023/05/22 08:10:59;;;;;;;;;6.00;6.00;;;;;21.51;44.26;101202.88;5018671;28;45553;-46
2023/05/22 08:13:24;;;;;;;;;7.00;5.50;;;;;21.52;44.16;101204.59;5018195;28;46070;-44
2023/05/22 08:15:49;;;;;;;;;5.00;5.00;;;;;21.52;44.10;101199.31;5018201;28;45351;-44
2023/05/22 08:18:15;;;;;;;;;5.75;5.25;;;;;21.52;44.12;101188.75;5018344;28;45275;-40
2023/05/22 08:20:40;;;;;;;;;5.50;5.50;;;;;21.53;44.33;101201.03;5018921;28;45562;-42
2023/05/22 08:23:05;;;;;;;;;5.00;5.00;;;;;21.54;44.39;101202.72;5018152;28;46375;-45
2023/05/22 08:25:31;;;;;;;;;5.00;5.00;;;;;21.54;44.43;101201.84;5018263;28;45284;-48
2023/05/22 08:27:56;;;;;;;;;5.50;5.50;;;;;21.54;44.11;101201.84;5018240;28;45289;-37
2023/05/22 08:30:21;;;;;;;;;6.00;5.75;;;;;21.54;44.42;101201.84;5018191;28;45541;-45
2023/05/22 08:32:47;;;;;;;;;5.75;5.75;;;;;21.55;43.96;101203.56;5018116;28;45338;-41
2023/05/22 15:46:16;;;;;;;;;18.50;16.25;;;;;22.11;47.21;101148.59;5167942;22;46567;-45
2023/05/22 15:48:45;;;;;;;;;18.75;17.50;;;;;22.12;47.45;101144.19;5020825;28;45573;-44
2023/05/22 15:51:10;;;;;;;;;20.25;14.25;;;;;22.13;47.21;101152.00;5019817;28;45639;-44
2023/05/22 15:53:36;;;;;;;;;18.50;14.00;;;;;22.13;47.47;101143.25;5017371;28;45576;-44
2023/05/22 15:56:03;;;;;;;;;14.75;13.25;;;;;22.14;47.04;101147.59;4997388;28;45865;-42
2023/05/22 15:58:29;;;;;;;;;14.25;13.75;;;;;22.15;47.21;101139.56;5010676;28;45320;-44
2023/05/22 16:00:55;;;;;;;;;18.25;14.75;;;;;22.16;46.89;101148.38;5010803;28;45506;-43
2023/05/22 16:03:21;;;;;;;;;15.25;14.00;;;;;22.17;46.99;101142.97;5001532;28;45286;-42
2023/05/22 16:05:46;;;;;;;;;18.00;16.75;;;;;22.16;46.95;101151.84;5000284;28;45323;-45
2023/05/22 16:08:13;;;;;;;;;21.75;17.00;;;;;22.18;46.97;101144.69;5001530;28;45655;-46
2023/05/22 16:10:40;;;;;;;;;16.75;15.75;;;;;22.20;46.95;101150.75;5009756;28;45596;-47
2023/05/22 16:13:09;;;;;;;;;16.75;15.00;;;;;22.21;46.90;101141.00;5021944;28;45422;-44
2023/05/22 16:15:35;;;;;;;;;17.75;15.50;;;;;22.23;46.75;101149.69;5020103;28;45351;-50
2023/05/22 16:18:00;;;;;;;;;13.75;13.50;;;;;22.22;46.83;101151.47;5020327;28;45387;-42
2023/05/22 16:20:26;;;;;;;;;13.50;13.25;;;;;22.23;46.87;101153.19;5025841;28;45216;-48
2023/05/22 16:22:51;;;;;;;;;12.25;12.25;;;;;22.23;46.95;101145.25;5021068;28;55226;-45
2023/05/22 16:25:16;;;;;;;;;13.50;12.75;;;;;22.24;46.92;101146.97;5024535;28;52258;-46
2023/05/22 16:27:42;;;;;;;;;15.00;14.00;;;;;22.26;46.88;101153.94;5027424;28;45121;-45
2023/05/22 16:30:09;;;;;;;;;13.50;13.50;;;;;22.24;46.52;101144.31;5026597;28;45564;-44
2023/05/22 16:32:35;;;;;;;;;12.50;11.00;;;;;22.26;46.85;101151.31;5025315;28;46142;-45
2023/05/22 16:35:00;;;;;;;;;17.00;14.75;;;;;22.25;46.47;101150.47;5028660;28;45319;-45
2023/05/22 16:37:25;;;;;;;;;17.50;12.75;;;;;22.24;46.57;101160.16;5013755;28;44751;-43
2023/05/22 16:39:51;;;;;;;;;17.50;13.25;;;;;22.27;46.54;101155.66;5002172;28;45304;-42
2023/05/22 16:42:17;;;;;;;;;17.50;15.75;;;;;22.27;46.71;101158.28;5018061;28;46107;-42
2023/05/22 16:44:42;;;;;;;;;14.75;13.25;;;;;22.27;46.58;101158.28;5023301;28;45501;-45
2023/05/22 16:47:07;;;;;;;;;17.00;13.25;;;;;22.27;46.63;101158.28;5021575;28;45248;-49
2023/05/22 16:49:33;;;;;;;;;15.50;15.00;;;;;22.26;46.50;101151.31;5021531;28;45323;-42
2023/05/22 16:51:59;;;;;;;;;16.75;14.50;;;;;22.28;46.47;101160.84;5018260;28;46083;-43
2023/05/22 16:54:24;;;;;;;;;18.75;14.75;;;;;22.28;46.73;101165.28;5018658;28;45400;-46
2023/05/22 16:56:49;;;;;;;;;15.25;14.00;;;;;22.28;46.56;101167.91;5018341;28;45258;-43
2023/05/22 16:59:15;;;;;;;;;14.50;14.00;;;;;22.29;46.79;101166.97;5021137;28;55271;-43
2023/05/22 17:01:42;;;;;;;;;17.25;15.75;;;;;22.29;46.89;101169.63;5027778;28;46203;-45
2023/05/22 17:04:07;;;;;;;;;16.50;13.75;;;;;22.29;46.38;101173.09;5030988;28;45296;-44
2023/05/22 17:06:34;;;;;;;;;14.25;13.00;;;;;22.30;46.62;101174.81;5023651;28;45425;-40
2023/05/22 17:08:59;;;;;;;;;19.75;17.50;;;;;22.31;46.75;101176.50;5024793;28;45220;-42
2023/05/22 17:11:25;;;;;;;;;14.75;12.25;;;;;22.33;46.75;101179.03;5035350;28;46048;-40
2023/05/22 17:13:50;;;;;;;;;14.25;14.25;;;;;22.33;46.62;101185.19;5025403;28;45507;-45
2023/05/22 17:16:16;;;;;;;;;18.75;15.75;;;;;22.33;46.71;101176.41;5020925;28;45516;-47
2023/05/22 17:18:41;;;;;;;;;17.00;17.00;;;;;22.33;46.76;101185.19;5023636;28;44960;-43
2023/05/22 17:21:07;;;;;;;;;16.33;14.33;;;;;22.33;47.09;101194.88;5026142;28;66435;-42
2023/05/22 17:23:35;;;;;;;;;15.00;15.00;;;;;22.32;47.12;101182.66;5025349;28;45836;-42
2023/05/22 17:26:04;;;;;;;;;20.00;17.25;;;;;22.31;47.24;101191.50;5019121;28;45209;-43
2023/05/22 17:28:30;;;;;;;;;17.00;15.75;;;;;22.30;47.16;101193.28;5018553;28;45256;-41
2023/05/22 17:30:55;;;;;;;;;17.75;15.00;;;;;22.29;46.87;101199.50;5019108;28;45998;-41
2023/05/22 17:33:21;;;;;;;;;22.25;17.00;;;;;22.29;47.27;101199.50;5022077;28;50045;-41
2023/05/22 17:35:47;;;;;;;;;19.25;15.75;;;;;22.29;47.15;101193.38;5025741;28;45398;-42
2023/05/22 17:38:12;;;;;;;;;13.50;13.50;;;;;22.28;47.17;101197.78;5023114;28;45670;-44
2023/05/22 17:40:37;;;;;;;;;15.75;15.00;;;;;22.28;47.12;101196.97;5019005;28;46016;-43
2023/05/22 17:43:03;;;;;;;;;20.00;16.00;;;;;22.28;47.11;101197.78;5028887;28;45358;-42
2023/05/22 17:45:28;;;;;;;;;17.50;15.75;;;;;22.27;47.10;101200.53;5025020;28;45418;-42
2023/05/22 17:47:54;;;;;;;;;16.00;13.25;;;;;22.27;47.08;101201.38;5023445;28;45522;-43
2023/05/22 17:50:19;;;;;;;;;13.00;13.00;;;;;22.28;47.31;101212.81;5028058;28;46233;-43
2023/05/22 17:52:44;;;;;;;;;16.50;14.25;;;;;22.26;47.52;101214.66;5018984;28;45315;-44
2023/05/22 17:55:10;;;;;;;;;17.75;16.25;;;;;22.26;47.10;101210.25;5016502;28;45271;-45
2023/05/22 17:57:35;;;;;;;;;18.25;15.50;;;;;22.27;47.19;101216.38;5004051;28;45613;-44
2023/05/22 18:00:01;;;;;;;;;16.00;15.00;;;;;22.26;47.24;101231.38;5004508;28;46018;-43
2023/05/22 18:02:28;;;;;;;;;16.00;14.75;;;;;22.26;47.34;101226.09;5033009;28;45335;-40
2023/05/22 18:04:53;;;;;;;;;15.50;14.75;;;;;22.24;47.27;101228.81;5018118;28;45398;-47
2023/05/22 18:07:18;;;;;;;;;25.00;15.25;;;;;22.24;47.11;101227.97;5018077;28;45696;-43
2023/05/22 18:09:44;;;;;;;;;17.00;13.50;;;;;22.23;47.08;101226.25;5019263;28;46848;-46
2023/05/22 18:12:09;;;;;;;;;17.75;16.75;;;;;22.20;47.17;101227.31;5019525;28;45324;-47
2023/05/22 18:14:34;;;;;;;;;19.00;16.25;;;;;22.20;47.09;101231.72;5023053;28;45554;-45
2023/05/22 18:17:00;;;;;;;;;22.00;17.33;;;;;22.19;47.31;101238.78;5029693;28;52486;-42
2023/05/22 18:19:25;;;;;;;;;21.25;15.50;;;;;22.19;47.71;101243.22;5018360;28;45992;-50
2023/05/22 18:21:52;;;;;;;;;19.25;15.50;;;;;22.18;47.92;101244.13;5018319;28;45319;-41
2023/05/22 18:24:22;;;;;;;;;23.75;18.75;;;;;22.18;48.49;101245.00;5020026;28;45403;-40
2023/05/22 18:26:47;;;;;;;;;19.25;17.00;;;;;22.17;48.34;101253.88;5022929;28;45531;-42
2023/05/22 18:29:12;;;;;;;;;17.00;14.25;;;;;22.17;49.04;101248.59;5032482;28;47287;-40